createdAt,value
2019-03-29T00:02:13.973Z,11.68
2019-03-29T00:04:40.160Z,11.45
2019-03-29T00:07:06.420Z,10.98
2019-03-29T00:09:32.583Z,13.28
2019-03-29T00:11:58.781Z,12.98
2019-03-29T00:14:24.949Z,10.15
2019-03-29T00:16:51.298Z,10.10
2019-03-29T00:19:19.651Z,12.58
2019-03-29T00:21:45.849Z,14.35
2019-03-29T00:24:12.120Z,12.45
2019-03-29T00:26:38.298Z,14.78
2019-03-29T00:29:04.492Z,14.75
2019-03-29T00:31:30.678Z,15.98
2019-03-29T00:33:56.894Z,14.43
2019-03-29T00:36:23.042Z,15.58
2019-03-29T00:38:49.384Z,14.73
2019-03-29T00:41:15.561Z,15.78
2019-03-29T00:43:41.732Z,19.17
2019-03-29T00:46:07.981Z,17.62
2019-03-29T00:48:35.789Z,15.03
2019-03-29T00:51:02.255Z,20.68
2019-03-29T00:53:28.419Z,15.38
2019-03-29T00:55:54.735Z,18.67
2019-03-29T00:58:20.923Z,15.65
2019-03-29T01:00:47.115Z,16.50
2019-03-29T01:03:13.275Z,16.40
2019-03-29T01:05:39.682Z,19.10
2019-03-29T01:08:08.124Z,16.10
2019-03-29T01:10:34.145Z,17.32
2019-03-29T01:13:00.313Z,17.57
2019-03-29T01:15:26.557Z,18.40
2019-03-29T01:17:52.725Z,18.00
2019-03-29T01:20:18.938Z,20.35
2019-03-29T01:22:45.107Z,17.75
2019-03-29T01:25:11.805Z,19.90
2019-03-29T01:27:38.156Z,16.77
2019-03-29T01:30:05.329Z,18.57
2019-03-29T01:32:32.399Z,20.48
2019-03-29T01:34:58.636Z,20.23
2019-03-29T01:37:24.800Z,21.45
2019-03-29T01:39:50.976Z,20.70
2019-03-29T01:42:17.328Z,21.65
2019-03-29T01:44:43.612Z,22.15
2019-03-29T01:47:09.802Z,22.60
2019-03-29T01:49:35.988Z,24.27
2019-03-29T01:52:02.161Z,21.05
2019-03-29T01:54:28.405Z,23.47
2019-03-29T01:56:54.592Z,22.98
2019-03-29T01:59:20.789Z,20.80
2019-03-29T02:01:46.962Z,20.08
2019-03-29T02:04:13.163Z,18.80
2019-03-29T02:06:39.729Z,25.88
2019-03-29T02:09:06.052Z,20.00
2019-03-29T02:11:32.536Z,20.08
2019-03-29T02:13:58.725Z,21.37
2019-03-29T02:16:24.933Z,23.10
2019-03-29T02:18:51.107Z,24.82
2019-03-29T02:21:17.314Z,25.23
2019-03-29T02:23:43.511Z,24.98
2019-03-29T02:26:09.709Z,24.40
2019-03-29T02:28:35.869Z,23.38
2019-03-29T02:31:02.074Z,22.22
2019-03-29T02:33:28.298Z,21.50
2019-03-29T02:35:54.470Z,25.48
2019-03-29T02:38:20.698Z,25.35
2019-03-29T02:40:46.869Z,26.93
2019-03-29T02:43:13.058Z,25.00
2019-03-29T02:45:59.221Z,25.10
2019-03-29T02:48:25.393Z,24.60
2019-03-29T02:50:51.597Z,26.37
2019-03-29T02:53:17.813Z,25.30
2019-03-29T02:55:43.980Z,24.10
2019-03-29T02:58:10.158Z,26.33
2019-03-29T03:00:36.869Z,23.45
2019-03-29T03:03:03.237Z,23.83
2019-03-29T03:05:29.415Z,27.22
2019-03-29T03:07:55.593Z,26.95
2019-03-29T03:10:21.835Z,24.60
2019-03-29T03:12:48.040Z,27.70
2019-03-29T03:15:14.429Z,24.20
2019-03-29T03:17:40.742Z,28.95
2019-03-29T03:20:14.407Z,38.28
2019-03-29T03:22:37.698Z,25.08
2019-03-29T03:25:05.306Z,29.60
2019-03-29T03:27:31.485Z,26.85
2019-03-29T03:29:59.743Z,24.98
2019-03-29T03:32:26.054Z,23.47
2019-03-29T03:34:52.258Z,22.02
2019-03-29T03:37:18.528Z,30.12
2019-03-29T03:39:44.731Z,20.12
2019-03-29T03:42:10.910Z,25.77
2019-03-29T03:44:37.469Z,25.20
2019-03-29T03:47:03.638Z,30.62
2019-03-29T03:49:29.834Z,37.05
2019-03-29T03:51:57.403Z,30.90
2019-03-29T03:54:23.613Z,31.70
2019-03-29T03:56:49.942Z,28.90
2019-03-29T03:59:16.478Z,33.83
2019-03-29T04:01:42.854Z,41.73
2019-03-29T04:04:09.186Z,33.15
2019-03-29T04:06:35.352Z,31.68
2019-03-29T04:09:01.573Z,33.53
2019-03-29T04:11:28.877Z,33.45
2019-03-29T04:13:55.062Z,35.30
2019-03-29T04:16:21.229Z,34.75
2019-03-29T04:18:47.439Z,34.33
2019-03-29T04:21:13.701Z,35.55
2019-03-29T04:23:39.977Z,34.50
2019-03-29T04:26:06.147Z,29.92
2019-03-29T04:28:32.328Z,31.73
2019-03-29T04:30:58.556Z,31.93
2019-03-29T04:33:24.732Z,25.90
2019-03-29T04:35:51.213Z,30.02
2019-03-29T04:38:17.370Z,26.20
2019-03-29T04:40:43.605Z,27.67
2019-03-29T04:43:09.875Z,25.97
2019-03-29T04:45:36.083Z,29.87
2019-03-29T04:48:02.554Z,30.35
2019-03-29T04:50:28.741Z,27.73
2019-03-29T04:52:54.920Z,28.98
2019-03-29T04:55:21.092Z,30.27
2019-03-29T04:57:47.394Z,28.40
2019-03-29T05:00:13.887Z,28.92
2019-03-29T05:02:40.073Z,30.75
2019-03-29T05:05:06.371Z,39.73
2019-03-29T05:07:32.565Z,32.73
2019-03-29T05:09:58.931Z,32.00
2019-03-29T05:12:25.227Z,27.70
2019-03-29T05:14:51.430Z,32.25
2019-03-29T05:17:17.599Z,29.57
2019-03-29T05:19:44.719Z,34.98
2019-03-29T05:22:11.053Z,29.20
2019-03-29T05:24:37.217Z,31.82
2019-03-29T05:27:03.412Z,33.48
2019-03-29T05:29:29.587Z,29.65
2019-03-29T05:31:55.851Z,30.30
2019-03-29T05:34:22.027Z,33.53
2019-03-29T05:36:48.295Z,34.35
2019-03-29T05:39:14.544Z,30.27
2019-03-29T05:41:40.740Z,31.65
2019-03-29T05:44:07.058Z,27.93
2019-03-29T05:46:33.285Z,30.43
2019-03-29T05:48:59.482Z,30.88
2019-03-29T05:51:25.645Z,27.00
2019-03-29T05:53:51.849Z,27.60
2019-03-29T05:56:18.031Z,29.52
2019-03-29T05:58:44.240Z,28.10
2019-03-29T06:01:10.432Z,22.20
2019-03-29T06:03:36.642Z,24.10
2019-03-29T06:06:02.793Z,23.10
2019-03-29T06:08:28.975Z,22.10
2019-03-29T06:10:55.344Z,21.75
2019-03-29T06:13:21.673Z,20.77
2019-03-29T06:15:48.076Z,23.07
2019-03-29T06:18:14.698Z,19.55
2019-03-29T06:20:40.873Z,18.37
2019-03-29T06:23:07.049Z,17.60
2019-03-29T06:25:34.342Z,17.45
2019-03-29T06:28:00.657Z,18.37
2019-03-29T06:30:28.206Z,19.48
2019-03-29T06:32:54.375Z,21.25
2019-03-29T06:35:21.791Z,23.32
2019-03-29T06:37:48.078Z,32.60
2019-03-29T06:40:23.351Z,25.72
2019-03-29T06:42:49.517Z,20.08
2019-03-29T06:45:15.745Z,26.15
2019-03-29T06:47:41.921Z,22.80
2019-03-29T06:50:08.161Z,23.38
2019-03-29T06:52:34.332Z,20.95
2019-03-29T06:55:00.528Z,20.12
2019-03-29T06:57:26.697Z,22.40
2019-03-29T06:59:54.647Z,22.17
2019-03-29T07:02:22.094Z,23.65
2019-03-29T07:04:48.276Z,24.80
2019-03-29T07:07:14.494Z,24.67
2019-03-29T07:09:40.861Z,24.80
2019-03-29T07:12:07.064Z,24.02
2019-03-29T07:14:33.244Z,22.45
2019-03-29T07:16:59.448Z,25.25
2019-03-29T07:19:25.637Z,23.92
2019-03-29T07:21:51.889Z,24.27
2019-03-29T07:24:18.192Z,28.17
2019-03-29T07:26:44.372Z,25.37
2019-03-29T07:29:10.572Z,23.05
2019-03-29T07:31:36.753Z,24.60
2019-03-29T07:34:03.128Z,23.05
2019-03-29T07:36:29.314Z,26.12
2019-03-29T07:38:55.495Z,26.82
2019-03-29T07:41:31.650Z,24.40
2019-03-29T07:43:49.953Z,23.95
2019-03-29T07:46:16.147Z,23.40
2019-03-29T07:48:42.326Z,24.70
2019-03-29T07:51:08.554Z,25.48
2019-03-29T07:53:34.724Z,23.70
2019-03-29T07:56:00.912Z,25.97
2019-03-29T07:58:27.089Z,23.35
2019-03-29T08:00:53.483Z,26.97
2019-03-29T08:03:21.242Z,24.25
2019-03-29T08:05:47.856Z,24.95
2019-03-29T08:08:24.130Z,24.43
2019-03-29T08:10:43.129Z,24.60
2019-03-29T08:13:09.327Z,23.80
2019-03-29T08:15:35.527Z,22.15
2019-03-29T08:18:02.080Z,21.05
2019-03-29T08:20:44.630Z,23.27
2019-03-29T08:22:56.556Z,23.50
2019-03-29T08:25:22.715Z,23.75
2019-03-29T08:27:48.921Z,20.75
2019-03-29T08:30:15.260Z,23.55
2019-03-29T08:32:41.548Z,26.27
2019-03-29T08:35:08.348Z,22.58
2019-03-29T08:37:34.531Z,22.77
2019-03-29T08:40:00.908Z,23.22
2019-03-29T08:42:27.124Z,22.10
2019-03-29T08:44:53.301Z,25.72
2019-03-29T08:47:20.595Z,23.38
2019-03-29T08:49:46.827Z,21.97
2019-03-29T08:52:13.001Z,23.00
2019-03-29T08:54:39.171Z,23.60
2019-03-29T08:57:05.374Z,22.60
2019-03-29T08:59:32.841Z,20.48
2019-03-29T09:01:59.132Z,21.33
2019-03-29T09:04:25.517Z,20.77
2019-03-29T09:06:54.129Z,19.77
2019-03-29T09:09:20.751Z,22.32
2019-03-29T09:11:47.025Z,20.45
2019-03-29T09:14:14.472Z,21.42
2019-03-29T09:16:40.714Z,20.23
2019-03-29T09:19:08.048Z,23.55
2019-03-29T09:21:34.263Z,20.82
2019-03-29T09:24:00.511Z,22.45
2019-03-29T09:26:26.836Z,20.08
2019-03-29T09:28:53.211Z,20.23
2019-03-29T09:31:19.406Z,16.27
2019-03-29T09:33:45.591Z,16.75
2019-03-29T09:36:12.045Z,16.85
2019-03-29T09:38:38.306Z,19.77
2019-03-29T09:41:04.493Z,16.70
2019-03-29T09:43:30.710Z,17.87
2019-03-29T09:45:56.950Z,17.82
2019-03-29T09:48:23.145Z,17.67
2019-03-29T09:50:50.882Z,14.65
2019-03-29T09:53:17.470Z,16.20
2019-03-29T09:55:45.719Z,14.80
2019-03-29T09:58:11.773Z,13.22
2019-03-29T10:00:38.099Z,16.25
2019-03-29T10:03:04.328Z,15.93
2019-03-29T10:05:31.536Z,13.50
2019-03-29T10:07:58.104Z,12.68
2019-03-29T10:10:24.389Z,15.30
2019-03-29T10:12:50.558Z,16.45
2019-03-29T10:15:16.834Z,17.35
2019-03-29T10:17:43.111Z,16.30
2019-03-29T10:20:09.745Z,13.93
2019-03-29T10:22:36.225Z,15.65
2019-03-29T10:25:18.577Z,15.58
2019-03-29T10:27:33.213Z,16.52
2019-03-29T10:29:59.660Z,15.13
2019-03-29T10:32:25.881Z,14.65
2019-03-29T10:34:52.204Z,13.95
2019-03-29T10:37:19.410Z,12.95
2019-03-29T10:39:45.632Z,14.75
2019-03-29T10:42:11.909Z,15.80
2019-03-29T10:44:38.072Z,14.23
2019-03-29T10:47:04.304Z,13.78
2019-03-29T10:49:30.508Z,15.05
2019-03-29T10:51:56.685Z,14.45
2019-03-29T10:54:23.074Z,12.58
2019-03-29T10:56:49.423Z,16.67
2019-03-29T10:59:26.800Z,14.75
2019-03-29T11:01:43.673Z,14.38
2019-03-29T11:04:10.234Z,17.77
2019-03-29T11:06:36.417Z,16.67
2019-03-29T11:09:05.516Z,15.53
2019-03-29T11:11:31.832Z,14.20
2019-03-29T11:13:58.306Z,16.27
2019-03-29T11:16:24.542Z,12.30
2019-03-29T11:18:50.874Z,11.40
2019-03-29T11:21:17.077Z,13.08
2019-03-29T11:23:43.335Z,12.07
2019-03-29T11:26:09.544Z,10.82
2019-03-29T11:28:35.735Z,12.18
2019-03-29T11:31:01.994Z,12.53
2019-03-29T11:33:28.238Z,10.15
2019-03-29T11:35:54.425Z,10.20
2019-03-29T11:38:20.615Z,10.35
2019-03-29T11:40:46.837Z,11.65
2019-03-29T11:43:26.033Z,13.08
2019-03-29T11:45:41.253Z,11.85
2019-03-29T11:48:09.390Z,12.15
2019-03-29T11:50:36.729Z,9.78
2019-03-29T11:53:03.104Z,10.72
2019-03-29T11:58:29.618Z,11.60
2019-03-29T12:00:55.989Z,11.53
2019-03-29T12:03:22.192Z,14.30
2019-03-29T12:05:49.086Z,15.90
2019-03-29T12:08:15.300Z,15.90
2019-03-29T12:10:41.513Z,15.80
2019-03-29T12:13:08.549Z,15.50
2019-03-29T12:15:49.260Z,16.37
2019-03-29T12:18:23.423Z,13.75
2019-03-29T12:20:49.631Z,13.18
2019-03-29T12:23:16.362Z,14.53
2019-03-29T12:25:42.743Z,19.25
2019-03-29T12:28:09.020Z,16.70
2019-03-29T12:30:35.411Z,16.73
2019-03-29T12:33:01.809Z,12.43
2019-03-29T12:35:28.034Z,11.28
2019-03-29T12:37:55.379Z,13.95
2019-03-29T12:40:21.632Z,13.48
2019-03-29T12:42:47.900Z,14.60
2019-03-29T12:45:15.600Z,13.28
2019-03-29T12:47:41.762Z,15.78
2019-03-29T12:50:08.315Z,12.60
2019-03-29T12:52:34.497Z,15.25
2019-03-29T12:55:00.705Z,16.32
2019-03-29T12:57:26.929Z,13.45
2019-03-29T12:59:53.230Z,12.50
2019-03-29T13:02:19.430Z,11.30
2019-03-29T13:04:47.313Z,12.33
2019-03-29T13:07:13.796Z,10.28
2019-03-29T13:09:41.930Z,12.13
2019-03-29T13:12:08.254Z,13.15
2019-03-29T13:14:34.446Z,12.15
2019-03-29T13:17:02.818Z,13.35
2019-03-29T13:19:28.791Z,17.07
2019-03-29T13:21:58.130Z,13.90
2019-03-29T13:24:24.261Z,14.87
2019-03-29T13:26:50.505Z,13.62
2019-03-29T13:29:16.725Z,12.63
2019-03-29T13:31:43.085Z,13.13
2019-03-29T13:34:09.684Z,13.80
2019-03-29T13:36:36.049Z,13.15
2019-03-29T13:39:05.378Z,13.58
2019-03-29T13:41:31.585Z,16.45
2019-03-29T13:43:57.772Z,12.45
2019-03-29T13:46:24.006Z,14.78
2019-03-29T13:48:50.419Z,13.60
2019-03-29T13:51:16.843Z,17.10
2019-03-29T13:53:43.031Z,13.40
2019-03-29T13:56:09.269Z,15.98
2019-03-29T13:58:35.864Z,14.70
2019-03-29T14:01:02.105Z,14.23
2019-03-29T14:03:28.306Z,12.15
2019-03-29T14:05:54.664Z,14.83
2019-03-29T14:08:21.039Z,14.65
2019-03-29T14:10:47.273Z,15.75
2019-03-29T14:13:14.534Z,16.45
2019-03-29T14:15:40.852Z,13.85
2019-03-29T14:18:07.044Z,14.98
2019-03-29T14:20:33.508Z,13.83
2019-03-29T14:23:01.104Z,14.53
2019-03-29T14:25:27.409Z,15.75
2019-03-29T14:27:53.590Z,14.90
2019-03-29T14:30:19.801Z,15.40
2019-03-29T14:32:45.977Z,14.05
2019-03-29T14:35:12.349Z,12.70
2019-03-29T14:37:38.575Z,15.23
2019-03-29T14:40:07.020Z,14.75
2019-03-29T14:42:33.526Z,12.53
2019-03-29T14:44:59.778Z,14.63
2019-03-29T14:47:39.837Z,14.28
2019-03-29T14:49:57.248Z,14.07
2019-03-29T14:52:23.524Z,14.60
2019-03-29T14:54:49.776Z,13.48
2019-03-29T14:57:16.005Z,12.05
2019-03-29T14:59:42.194Z,13.48
2019-03-29T15:02:08.504Z,13.22
2019-03-29T15:04:34.753Z,13.83
2019-03-29T15:07:02.004Z,18.82
2019-03-29T15:09:28.677Z,12.47
2019-03-29T15:11:55.012Z,13.15
2019-03-29T15:14:23.147Z,10.95
2019-03-29T15:16:49.385Z,14.00
2019-03-29T15:19:15.595Z,12.60
2019-03-29T15:21:41.912Z,12.07
2019-03-29T15:24:08.155Z,11.93
2019-03-29T15:26:34.353Z,15.32
2019-03-29T15:29:00.628Z,14.23
2019-03-29T15:31:31.401Z,16.70
2019-03-29T15:33:58.320Z,14.45
2019-03-29T15:36:24.514Z,14.63
2019-03-29T15:38:50.877Z,13.88
2019-03-29T15:41:19.456Z,13.13
2019-03-29T15:43:45.679Z,16.27
2019-03-29T15:46:11.974Z,13.53
2019-03-29T15:48:38.290Z,15.70
2019-03-29T15:51:04.456Z,13.48
2019-03-29T15:53:30.655Z,13.40
2019-03-29T15:55:58.095Z,15.88
2019-03-29T15:58:24.453Z,14.50
2019-03-29T16:00:50.660Z,13.10
2019-03-29T16:03:17.035Z,16.27
2019-03-29T16:05:43.319Z,12.68
2019-03-29T16:08:09.497Z,15.10
2019-03-29T16:10:35.740Z,14.25
2019-03-29T16:13:01.904Z,17.70
2019-03-29T16:15:34.955Z,14.40
2019-03-29T16:17:56.189Z,14.98
2019-03-29T16:20:22.372Z,15.18
2019-03-29T16:22:48.579Z,18.55
2019-03-29T16:25:14.776Z,14.65
2019-03-29T16:27:41.053Z,16.73
2019-03-29T16:30:08.168Z,17.20
2019-03-29T16:32:35.502Z,14.10
2019-03-29T16:35:02.695Z,13.53
2019-03-29T16:37:29.303Z,12.75
2019-03-29T16:39:55.497Z,15.50
2019-03-29T16:42:21.747Z,12.47
2019-03-29T16:44:48.069Z,12.47
2019-03-29T16:47:15.283Z,14.18
2019-03-29T16:49:41.555Z,13.08
2019-03-29T16:52:08.721Z,15.03
2019-03-29T16:54:36.149Z,14.20
2019-03-29T16:57:02.439Z,12.82
2019-03-29T16:59:29.149Z,14.58
2019-03-29T17:01:55.969Z,16.57
2019-03-29T17:04:22.138Z,15.70
2019-03-29T17:06:48.324Z,17.65
2019-03-29T17:09:14.553Z,15.50
2019-03-29T17:11:40.729Z,15.88
2019-03-29T17:14:06.968Z,16.90
2019-03-29T17:16:33.140Z,17.00
2019-03-29T17:18:59.420Z,16.45
2019-03-29T17:21:25.685Z,16.90
2019-03-29T17:23:52.919Z,17.77
2019-03-29T17:26:19.414Z,16.50
2019-03-29T17:28:45.679Z,15.72
2019-03-29T17:31:13.775Z,18.27
2019-03-29T17:33:40.001Z,15.58
2019-03-29T17:36:06.219Z,16.30
2019-03-29T17:38:32.421Z,15.85
2019-03-29T17:40:58.603Z,17.20
2019-03-29T17:43:24.836Z,18.27
2019-03-29T17:45:51.114Z,17.17
2019-03-29T17:48:17.336Z,19.77
2019-03-29T17:50:43.576Z,17.98
2019-03-29T17:53:11.679Z,17.98
2019-03-29T17:55:39.588Z,19.15
2019-03-29T17:58:06.012Z,19.25
2019-03-29T18:00:32.192Z,18.45
2019-03-29T18:02:59.555Z,20.12
2019-03-29T18:05:25.982Z,18.70
2019-03-29T18:07:52.521Z,21.57
2019-03-29T18:10:19.852Z,21.90
2019-03-29T18:12:46.112Z,19.98
2019-03-29T18:15:13.260Z,24.40
2019-03-29T18:17:39.508Z,25.90
2019-03-29T18:20:06.902Z,24.23
2019-03-29T18:22:33.060Z,23.05
2019-03-29T18:24:59.328Z,26.75
2019-03-29T18:27:25.524Z,22.75
2019-03-29T18:29:51.743Z,27.27
2019-03-29T18:32:18.124Z,26.27
2019-03-29T18:34:44.281Z,27.58
2019-03-29T18:37:12.013Z,24.07
2019-03-29T18:39:38.457Z,28.80
2019-03-29T18:42:04.617Z,28.98
2019-03-29T18:44:30.805Z,24.82
2019-03-29T18:46:57.070Z,25.05
2019-03-29T18:49:23.241Z,30.77
2019-03-29T18:51:49.452Z,31.85
2019-03-29T18:54:15.636Z,28.35
2019-03-29T18:56:41.834Z,25.80
2019-03-29T18:59:08.057Z,27.85
2019-03-29T19:01:34.239Z,28.55
2019-03-29T19:04:00.403Z,23.30
2019-03-29T19:06:26.594Z,25.02
2019-03-29T19:08:52.776Z,25.68
2019-03-29T19:11:18.944Z,28.17
2019-03-29T19:13:45.129Z,27.65
2019-03-29T19:16:11.341Z,26.57
2019-03-29T19:18:37.531Z,24.43
2019-03-29T19:21:03.715Z,28.42
2019-03-29T19:23:30.925Z,26.97
2019-03-29T19:25:57.129Z,25.82
2019-03-29T19:28:23.394Z,26.40
2019-03-29T19:30:49.670Z,28.05
2019-03-29T19:33:15.896Z,26.17
2019-03-29T19:35:42.082Z,27.62
2019-03-29T19:38:08.477Z,25.90
2019-03-29T19:40:34.735Z,29.72
2019-03-29T19:43:01.277Z,26.68
2019-03-29T19:45:28.668Z,32.23
2019-03-29T19:47:54.894Z,28.60
2019-03-29T19:50:22.003Z,26.35
2019-03-29T19:52:48.380Z,27.55
2019-03-29T19:55:14.538Z,29.57
2019-03-29T19:57:40.727Z,32.55
2019-03-29T20:00:12.259Z,28.70
2019-03-29T20:02:38.637Z,29.00
2019-03-29T20:05:08.638Z,32.80
2019-03-29T20:07:34.825Z,31.65
2019-03-29T20:10:00.984Z,30.80
2019-03-29T20:12:27.178Z,29.50
2019-03-29T20:14:54.361Z,30.85
2019-03-29T20:17:27.429Z,35.03
2019-03-29T20:19:48.887Z,33.05
2019-03-29T20:22:16.363Z,33.55
2019-03-29T20:24:42.816Z,34.23
2019-03-29T20:27:09.065Z,36.83
2019-03-29T20:29:35.245Z,32.17
2019-03-29T20:32:01.481Z,34.23
2019-03-29T20:34:27.677Z,34.35
2019-03-29T20:36:53.851Z,31.95
2019-03-29T20:39:20.032Z,31.30
2019-03-29T20:41:46.228Z,34.25
2019-03-29T20:44:12.473Z,39.70
2019-03-29T20:46:38.650Z,37.83
2019-03-29T20:49:04.959Z,41.08
2019-03-29T20:51:31.115Z,36.20
2019-03-29T20:53:57.324Z,38.75
2019-03-29T20:56:23.601Z,30.02
2019-03-29T20:58:49.848Z,27.07
2019-03-29T21:01:16.343Z,34.58
2019-03-29T21:03:42.508Z,30.65
2019-03-29T21:06:08.990Z,33.88
2019-03-29T21:08:36.264Z,31.62
2019-03-29T21:11:02.971Z,31.02
2019-03-29T21:13:29.389Z,34.67
2019-03-29T21:15:55.642Z,29.15
2019-03-29T21:18:21.895Z,29.75
2019-03-29T21:20:48.081Z,29.60
2019-03-29T21:23:14.507Z,29.77
2019-03-29T21:25:40.684Z,27.52
2019-03-29T21:28:06.885Z,27.93
2019-03-29T21:30:33.097Z,29.23
2019-03-29T21:32:59.272Z,31.55
2019-03-29T21:35:25.455Z,29.40
2019-03-29T21:37:51.620Z,27.22
2019-03-29T21:40:17.851Z,27.27
2019-03-29T21:42:44.128Z,27.98
2019-03-29T21:45:10.816Z,28.50
2019-03-29T21:47:36.994Z,29.18
2019-03-29T21:50:06.748Z,26.40
2019-03-29T21:52:32.917Z,25.77
2019-03-29T21:54:59.081Z,29.77
2019-03-29T21:57:25.278Z,28.05
2019-03-29T21:59:51.566Z,29.50
2019-03-29T22:02:17.767Z,27.75
2019-03-29T22:04:44.013Z,24.00
2019-03-29T22:07:10.285Z,25.25
2019-03-29T22:09:37.437Z,25.52
2019-03-29T22:12:04.250Z,28.38
2019-03-29T22:14:30.430Z,28.32
2019-03-29T22:16:56.597Z,30.90
2019-03-29T22:19:22.794Z,26.52
2019-03-29T22:21:48.987Z,31.00
2019-03-29T22:24:15.167Z,29.67
2019-03-29T22:26:41.340Z,29.23
2019-03-29T22:29:07.533Z,26.87
2019-03-29T22:31:33.735Z,27.32
2019-03-29T22:34:00.917Z,24.57
2019-03-29T22:36:27.119Z,32.08
2019-03-29T22:38:53.305Z,29.48
2019-03-29T22:41:19.513Z,30.05
2019-03-29T22:43:45.709Z,27.40
2019-03-29T22:46:11.896Z,24.92
2019-03-29T22:48:51.523Z,32.78
2019-03-29T22:51:06.630Z,28.55
2019-03-29T22:53:32.837Z,30.40
2019-03-29T22:55:59.004Z,26.27
2019-03-29T22:58:28.338Z,28.57
2019-03-29T23:00:54.296Z,28.73
2019-03-29T23:03:21.272Z,31.55
2019-03-29T23:05:48.488Z,31.23
2019-03-29T23:08:14.652Z,32.78
2019-03-29T23:10:40.874Z,29.25
2019-03-29T23:13:07.040Z,31.40
2019-03-29T23:15:33.633Z,30.88
2019-03-29T23:17:59.803Z,25.15
2019-03-29T23:20:25.989Z,29.60
2019-03-29T23:22:52.223Z,26.52
2019-03-29T23:25:18.420Z,26.62
2019-03-29T23:27:44.796Z,26.60
2019-03-29T23:30:11.387Z,24.85
2019-03-29T23:32:37.548Z,25.45
2019-03-29T23:35:05.644Z,29.35
2019-03-29T23:37:31.873Z,28.62
2019-03-29T23:39:58.202Z,31.30
2019-03-29T23:42:24.369Z,29.23
2019-03-29T23:44:50.710Z,24.92
2019-03-29T23:47:17.214Z,31.23
2019-03-29T23:49:43.588Z,28.27
2019-03-29T23:52:09.783Z,33.88
2019-03-29T23:54:36.074Z,36.63
2019-03-29T23:57:02.320Z,31.48
2019-03-29T23:59:28.500Z,30.45
